Time;durP1;ratioP1;P1;durP2;ratioP2;P2;SDS_P1;SDS_P2;PMS_P1;PMS_P2;Temp;Humidity;BMP_temperature;BMP_pressure;BME280_temperature;BME280_humidity;BME280_pressure;Samples;Min_cycle;Max_cycle;Signal;HPM_P1;HPM_P2
2021/12/03 00:00:17;;;;;;;43.73;37.67;;;0.00;99.90;;;;;;5042056;28;20581;-70
2021/12/03 00:02:44;;;;;;;46.87;38.57;;;0.00;99.90;;;;;;5034346;28;20816;-70
2021/12/03 00:05:11;;;;;;;47.27;37.63;;;0.00;99.90;;;;;;5037232;28;20471;-70
2021/12/03 00:07:40;;;;;;;49.93;40.53;;;0.10;99.90;;;;;;5040613;28;20482;-70
2021/12/03 00:10:08;;;;;;;47.63;39.40;;;0.10;99.90;;;;;;5035374;28;20493;-71
2021/12/03 00:12:35;;;;;;;45.60;38.07;;;0.00;99.90;;;;;;5036419;28;20492;-70
2021/12/03 00:15:02;;;;;;;50.07;39.90;;;0.00;99.90;;;;;;5036374;28;20460;-70
2021/12/03 00:17:30;;;;;;;46.70;39.40;;;0.00;99.90;;;;;;5036282;28;20467;-70
2021/12/03 00:19:57;;;;;;;48.13;37.50;;;0.00;99.90;;;;;;5035400;28;20558;-69
2021/12/03 00:22:24;;;;;;;47.80;39.53;;;0.00;99.90;;;;;;5035178;28;20462;-69
2021/12/03 00:24:51;;;;;;;47.40;37.77;;;0.20;99.90;;;;;;5040891;28;20819;-69
2021/12/03 00:27:18;;;;;;;49.77;40.60;;;0.20;99.90;;;;;;5042466;28;20460;-70
2021/12/03 00:29:45;;;;;;;46.43;35.87;;;0.10;99.90;;;;;;5034714;28;20493;-69
2021/12/03 00:32:12;;;;;;;50.23;40.97;;;0.10;99.90;;;;;;5036639;28;20505;-69
2021/12/03 00:34:41;;;;;;;54.47;38.87;;;0.20;99.90;;;;;;5042533;28;21007;-70
2021/12/03 00:37:08;;;;;;;46.53;38.50;;;0.20;99.90;;;;;;5042489;28;20585;-70
2021/12/03 00:39:35;;;;;;;44.07;37.87;;;0.20;99.90;;;;;;5036858;28;20462;-69
2021/12/03 00:42:03;;;;;;;44.47;37.43;;;0.20;99.90;;;;;;5041256;28;20463;-69
2021/12/03 00:44:30;;;;;;;47.57;36.13;;;0.20;99.90;;;;;;5040572;28;20460;-70
2021/12/03 00:46:59;;;;;;;58.20;39.90;;;0.20;99.90;;;;;;5043459;28;20502;-70
2021/12/03 00:49:27;;;;;;;45.17;36.50;;;0.30;99.90;;;;;;5034918;28;20465;-69
2021/12/03 00:51:55;;;;;;;49.83;37.10;;;0.40;99.90;;;;;;5040777;28;20466;-70
2021/12/03 00:54:21;;;;;;;50.87;37.80;;;0.40;99.90;;;;;;5033185;28;20464;-70
2021/12/03 00:56:48;;;;;;;44.27;36.03;;;0.40;99.90;;;;;;5031722;28;20466;-69
2021/12/03 00:59:15;;;;;;;52.87;38.40;;;0.40;99.90;;;;;;5042239;28;20511;-69
2021/12/03 01:01:42;;;;;;;51.03;38.60;;;0.40;99.90;;;;;;5034859;28;20471;-69
2021/12/03 01:04:09;;;;;;;50.73;37.50;;;0.50;99.90;;;;;;5043626;28;20467;-70
2021/12/03 01:06:36;;;;;;;51.80;37.60;;;0.40;99.90;;;;;;5036701;28;20868;-69
2021/12/03 01:09:05;;;;;;;50.37;35.27;;;0.40;99.90;;;;;;5036646;28;21041;-69
2021/12/03 01:11:33;;;;;;;51.60;36.20;;;0.50;99.90;;;;;;5038891;28;20513;-69
2021/12/03 01:14:01;;;;;;;48.60;35.03;;;0.50;99.90;;;;;;5042299;28;20508;-70
2021/12/03 01:16:28;;;;;;;42.63;33.50;;;0.40;99.90;;;;;;5041537;28;21669;-69
2021/12/03 01:18:56;;;;;;;45.00;37.30;;;0.50;99.90;;;;;;5039244;28;20529;-69
2021/12/03 01:21:23;;;;;;;56.30;36.10;;;0.50;99.90;;;;;;5031699;28;20467;-69
2021/12/03 01:23:51;;;;;;;55.23;34.70;;;0.50;99.90;;;;;;5040412;28;20466;-69
2021/12/03 01:26:21;;;;;;;56.10;34.40;;;0.40;99.90;;;;;;5035683;28;20543;-69
2021/12/03 01:28:48;;;;;;;44.30;36.20;;;0.40;99.90;;;;;;5039249;28;21062;-69
2021/12/03 01:31:17;;;;;;;49.17;36.10;;;0.50;99.90;;;;;;5041870;28;20487;-69
2021/12/03 01:33:44;;;;;;;59.80;36.60;;;0.70;99.90;;;;;;5043146;28;20647;-69
2021/12/03 01:36:11;;;;;;;48.50;38.00;;;0.70;99.90;;;;;;5038232;28;20994;-69
2021/12/03 01:38:38;;;;;;;48.33;35.57;;;0.80;99.90;;;;;;5035200;28;20483;-69
2021/12/03 01:41:06;;;;;;;48.57;36.57;;;0.90;99.90;;;;;;5042568;28;20486;-69
2021/12/03 01:43:34;;;;;;;46.13;35.80;;;0.90;99.90;;;;;;5039417;28;20519;-69
2021/12/03 01:46:05;;;;;;;53.87;38.30;;;0.90;99.90;;;;;;5044591;28;20452;-69
2021/12/03 01:48:32;;;;;;;44.47;37.53;;;1.00;99.90;;;;;;5036830;28;20467;-69
2021/12/03 01:51:01;;;;;;;51.20;37.10;;;1.00;99.90;;;;;;5039266;28;20553;-69
2021/12/03 01:53:30;;;;;;;51.07;37.60;;;1.10;99.90;;;;;;5034972;28;20502;-69
2021/12/03 01:55:59;;;;;;;50.83;35.37;;;1.10;99.90;;;;;;5036101;28;20463;-69
2021/12/03 01:58:26;;;;;;;47.00;35.03;;;1.10;99.90;;;;;;5036944;28;20840;-69
2021/12/03 02:00:57;;;;;;;46.60;35.70;;;1.20;99.90;;;;;;5039133;28;20470;-69
2021/12/03 02:03:28;;;;;;;62.60;37.00;;;1.20;99.90;;;;;;5039925;28;20881;-69
2021/12/03 02:05:55;;;;;;;55.13;36.97;;;1.20;99.90;;;;;;5038359;28;20468;-69
2021/12/03 02:08:22;;;;;;;44.20;34.57;;;1.20;99.90;;;;;;5041930;28;20467;-69
2021/12/03 02:10:49;;;;;;;43.20;34.63;;;1.20;99.90;;;;;;5038262;28;20513;-69
2021/12/03 02:13:17;;;;;;;41.70;34.67;;;1.20;99.90;;;;;;5036276;28;20498;-69
2021/12/03 02:15:45;;;;;;;41.40;36.20;;;1.30;99.90;;;;;;5040069;28;20467;-68
2021/12/03 02:18:14;;;;;;;51.47;36.30;;;1.40;99.90;;;;;;5040317;28;20573;-69
2021/12/03 02:20:44;;;;;;;50.47;36.07;;;1.40;99.90;;;;;;5029649;28;20459;-69
2021/12/03 02:23:12;;;;;;;53.50;42.07;;;1.40;99.90;;;;;;5040304;28;20772;-69
2021/12/03 02:25:39;;;;;;;50.83;41.40;;;1.50;99.90;;;;;;5034426;28;20467;-69
2021/12/03 02:28:06;;;;;;;43.77;38.73;;;1.50;99.90;;;;;;5039302;28;21264;-69
2021/12/03 02:30:33;;;;;;;51.43;41.20;;;1.50;99.90;;;;;;5038219;28;20483;-69
2021/12/03 02:33:00;;;;;;;43.20;38.63;;;1.60;99.90;;;;;;5038291;28;20501;-68
2021/12/03 02:35:27;;;;;;;51.10;41.00;;;1.60;99.90;;;;;;5040118;28;20472;-68
2021/12/03 02:37:55;;;;;;;63.53;40.80;;;1.60;99.90;;;;;;5034586;28;20488;-68
2021/12/03 02:40:25;;;;;;;48.90;41.67;;;1.60;99.90;;;;;;5035457;28;20502;-68
2021/12/03 02:42:53;;;;;;;51.63;38.77;;;1.70;99.90;;;;;;5035569;28;20481;-69
2021/12/03 02:45:21;;;;;;;53.63;40.63;;;1.70;99.90;;;;;;5040975;28;20464;-68
2021/12/03 02:47:48;;;;;;;46.10;39.50;;;1.80;99.90;;;;;;5034009;28;21040;-68
2021/12/03 02:50:17;;;;;;;47.50;38.60;;;1.80;99.90;;;;;;5034799;28;21031;-68
2021/12/03 02:52:45;;;;;;;46.80;39.60;;;1.70;99.90;;;;;;5038767;28;20491;-69
2021/12/03 02:55:14;;;;;;;47.03;38.17;;;1.80;99.90;;;;;;5034913;28;20509;-69
2021/12/03 02:57:41;;;;;;;45.87;39.13;;;1.80;99.90;;;;;;5035876;28;20558;-69
2021/12/03 03:00:11;;;;;;;44.37;39.63;;;1.80;99.90;;;;;;5040758;28;20565;-69
2021/12/03 03:02:38;;;;;;;46.20;41.00;;;1.70;99.90;;;;;;5034277;28;20479;-69
2021/12/03 03:05:05;;;;;;;48.83;40.20;;;1.70;99.90;;;;;;5038082;28;20470;-69
2021/12/03 03:07:32;;;;;;;42.70;37.23;;;1.70;99.90;;;;;;5029308;28;20573;-70
2021/12/03 03:09:59;;;;;;;44.23;39.10;;;1.70;99.90;;;;;;5032040;28;20478;-69
2021/12/03 03:12:28;;;;;;;44.60;39.77;;;1.60;99.90;;;;;;5037508;28;20468;-69
2021/12/03 03:14:58;;;;;;;45.60;38.17;;;1.70;99.90;;;;;;5039434;28;21196;-69
2021/12/03 03:17:31;;;;;;;41.70;37.17;;;1.70;99.90;;;;;;5035575;28;20476;-69
2021/12/03 03:19:59;;;;;;;46.47;37.70;;;1.80;99.90;;;;;;5031593;28;21041;-69
2021/12/03 03:22:27;;;;;;;48.27;38.00;;;1.70;99.90;;;;;;5033353;28;20470;-68
2021/12/03 03:24:59;;;;;;;40.80;36.40;;;1.80;99.90;;;;;;5035802;28;20495;-68
2021/12/03 03:27:30;;;;;;;38.93;34.77;;;1.90;99.90;;;;;;5029813;28;20550;-69
2021/12/03 03:29:58;;;;;;;43.07;36.23;;;1.90;99.90;;;;;;5042691;28;20618;-68
2021/12/03 03:32:25;;;;;;;45.83;36.93;;;2.00;99.90;;;;;;5037847;28;20466;-68
2021/12/03 03:34:52;;;;;;;40.60;35.27;;;2.00;99.90;;;;;;5031917;28;20488;-68
2021/12/03 03:37:19;;;;;;;48.03;38.87;;;2.00;99.90;;;;;;5030780;28;21022;-68
2021/12/03 03:39:47;;;;;;;38.07;34.10;;;2.00;99.90;;;;;;5036885;28;20476;-68
2021/12/03 03:42:13;;;;;;;37.57;34.07;;;2.00;99.90;;;;;;5040902;28;20470;-68
2021/12/03 03:44:42;;;;;;;40.53;36.27;;;2.00;99.90;;;;;;5035569;28;20472;-68
2021/12/03 03:47:09;;;;;;;39.30;35.50;;;1.90;99.90;;;;;;5034714;28;20475;-68
2021/12/03 03:49:36;;;;;;;41.30;33.47;;;2.00;99.90;;;;;;5030244;28;20485;-68
2021/12/03 03:52:04;;;;;;;44.77;35.73;;;2.00;99.90;;;;;;5030593;28;20471;-69
2021/12/03 03:54:31;;;;;;;44.13;36.53;;;2.00;99.90;;;;;;5037885;28;20500;-68
2021/12/03 03:56:59;;;;;;;43.60;34.20;;;2.10;99.90;;;;;;5039316;28;20754;-68
2021/12/03 03:59:26;;;;;;;41.53;37.13;;;2.10;99.90;;;;;;5038961;28;20825;-68
2021/12/03 04:01:54;;;;;;;40.87;33.60;;;2.00;99.90;;;;;;5037250;28;20463;-68
2021/12/03 04:04:21;;;;;;;47.57;36.07;;;1.90;99.90;;;;;;5036331;28;20493;-68
2021/12/03 04:06:49;;;;;;;47.50;34.30;;;2.00;99.90;;;;;;5031793;28;20533;-68
2021/12/03 04:09:16;;;;;;;46.10;35.70;;;2.00;99.90;;;;;;5032738;28;21287;-68
2021/12/03 04:11:43;;;;;;;35.93;32.00;;;2.00;99.90;;;;;;5032782;28;20522;-68
2021/12/03 04:14:10;;;;;;;36.03;31.70;;;2.00;99.90;;;;;;5038441;28;20491;-67
2021/12/03 04:16:37;;;;;;;52.33;33.40;;;1.90;99.90;;;;;;5035487;28;20499;-67
2021/12/03 04:19:06;;;;;;;47.27;33.23;;;2.00;99.90;;;;;;5036991;28;21219;-67
2021/12/03 04:21:33;;;;;;;49.27;34.30;;;1.90;99.90;;;;;;5029047;28;20478;-67
2021/12/03 04:24:00;;;;;;;57.60;34.27;;;2.00;99.90;;;;;;5037823;28;21115;-68
2021/12/03 04:26:27;;;;;;;46.73;32.97;;;2.00;99.90;;;;;;5033249;28;20469;-67
2021/12/03 04:28:54;;;;;;;43.67;35.00;;;2.10;99.90;;;;;;5036388;28;20978;-67
2021/12/03 04:31:21;;;;;;;49.83;33.83;;;2.20;99.90;;;;;;5033518;28;20490;-67
2021/12/03 04:33:48;;;;;;;47.80;35.17;;;2.10;99.90;;;;;;5033671;28;20496;-68
2021/12/03 04:36:16;;;;;;;42.17;32.93;;;2.10;99.90;;;;;;5040843;28;20463;-68
2021/12/03 04:38:43;;;;;;;44.13;32.53;;;2.00;99.90;;;;;;5043035;28;20495;-67
2021/12/03 04:41:10;;;;;;;38.63;31.87;;;2.10;99.90;;;;;;5035248;28;20469;-67
2021/12/03 04:43:37;;;;;;;57.37;33.80;;;2.10;99.90;;;;;;5040467;28;20463;-67
2021/12/03 04:46:04;;;;;;;45.23;34.10;;;2.10;99.90;;;;;;5036810;28;20460;-68
2021/12/03 04:48:31;;;;;;;48.63;33.37;;;2.20;99.90;;;;;;5041979;28;21172;-67
2021/12/03 04:50:58;;;;;;;47.43;34.13;;;2.30;99.90;;;;;;5039555;28;20954;-67
2021/12/03 04:53:26;;;;;;;52.40;35.97;;;2.30;99.90;;;;;;5037892;28;20482;-67
2021/12/03 04:55:54;;;;;;;47.77;33.30;;;2.20;99.90;;;;;;5037472;28;20473;-67
2021/12/03 04:58:21;;;;;;;42.83;33.87;;;2.20;99.90;;;;;;5040162;28;21218;-68
2021/12/03 05:00:51;;;;;;;47.33;34.73;;;2.20;99.90;;;;;;5036430;28;20543;-68
2021/12/03 05:03:18;;;;;;;52.40;35.93;;;2.20;99.90;;;;;;5038545;28;20467;-67
2021/12/03 05:05:49;;;;;;;55.67;35.30;;;2.30;99.90;;;;;;5033413;28;20769;-68
2021/12/03 05:08:16;;;;;;;48.17;34.17;;;2.40;99.90;;;;;;5036492;28;20550;-68
2021/12/03 05:10:45;;;;;;;53.87;36.57;;;2.40;99.90;;;;;;5035717;28;20457;-67
2021/12/03 05:13:15;;;;;;;57.00;37.30;;;2.40;99.90;;;;;;5041952;28;21036;-69
2021/12/03 05:15:42;;;;;;;51.67;36.17;;;2.40;99.90;;;;;;5033712;28;21244;-68
2021/12/03 05:18:11;;;;;;;55.03;36.60;;;2.40;99.90;;;;;;5036907;28;20466;-67
2021/12/03 05:20:39;;;;;;;50.93;36.17;;;2.50;99.90;;;;;;5034014;28;20845;-67
2021/12/03 05:23:06;;;;;;;43.23;34.43;;;2.60;99.90;;;;;;5032588;28;20464;-67
2021/12/03 05:25:34;;;;;;;51.70;33.60;;;2.60;99.90;;;;;;5033654;28;20467;-67
2021/12/03 05:28:03;;;;;;;43.00;34.10;;;2.50;99.90;;;;;;5038623;28;21006;-67
2021/12/03 05:30:31;;;;;;;56.87;35.97;;;2.60;99.90;;;;;;5040434;28;20781;-68
2021/12/03 05:32:58;;;;;;;53.13;35.77;;;2.50;99.90;;;;;;5030798;28;20666;-68
2021/12/03 05:35:26;;;;;;;55.70;32.60;;;2.50;99.90;;;;;;5033550;28;20541;-68
2021/12/03 05:37:53;;;;;;;51.43;34.93;;;2.50;99.90;;;;;;5029043;28;20498;-68
2021/12/03 05:40:20;;;;;;;42.20;29.47;;;2.60;99.90;;;;;;5033079;28;20467;-68
2021/12/03 05:42:48;;;;;;;51.10;35.07;;;2.60;99.90;;;;;;5033222;28;20487;-68
2021/12/03 05:45:19;;;;;;;44.07;32.77;;;2.60;99.90;;;;;;5037041;28;20460;-68
2021/12/03 05:47:47;;;;;;;39.73;29.43;;;2.60;99.90;;;;;;5028652;28;20543;-67
2021/12/03 05:50:15;;;;;;;46.20;30.60;;;2.60;99.90;;;;;;5034926;28;20546;-67
2021/12/03 05:52:42;;;;;;;40.13;30.73;;;2.60;99.90;;;;;;5027721;28;20816;-67
2021/12/03 05:55:10;;;;;;;62.73;31.60;;;2.50;99.90;;;;;;5035560;28;20487;-67
2021/12/03 05:57:36;;;;;;;46.50;32.77;;;2.60;99.90;;;;;;5036940;28;20456;-68
2021/12/03 06:00:05;;;;;;;50.50;32.70;;;2.70;99.90;;;;;;5038565;28;20478;-68
2021/12/03 06:02:34;;;;;;;37.07;30.63;;;2.70;99.90;;;;;;5035160;28;20478;-68
2021/12/03 06:05:00;;;;;;;45.37;31.20;;;2.60;99.90;;;;;;5033859;28;20466;-68
2021/12/03 06:07:27;;;;;;;40.77;30.07;;;2.70;99.90;;;;;;5035256;28;21114;-71
2021/12/03 06:09:54;;;;;;;35.07;25.00;;;2.70;99.90;;;;;;5038466;28;21217;-68
2021/12/03 06:12:21;;;;;;;39.67;29.33;;;2.70;99.90;;;;;;5036370;28;20472;-69
2021/12/03 06:14:48;;;;;;;40.40;28.40;;;2.70;99.90;;;;;;5037386;28;20906;-69
2021/12/03 06:17:15;;;;;;;37.80;27.30;;;2.70;99.90;;;;;;5035921;28;20463;-69
2021/12/03 06:19:44;;;;;;;38.63;26.53;;;2.80;99.90;;;;;;5030420;28;20476;-73
2021/12/03 06:22:12;;;;;;;34.73;28.20;;;2.70;99.90;;;;;;5038344;28;20467;-71
2021/12/03 06:24:40;;;;;;;51.90;27.90;;;2.80;99.90;;;;;;5039903;28;20460;-72
2021/12/03 06:27:07;;;;;;;35.43;27.27;;;2.90;99.90;;;;;;5037855;28;21031;-72
2021/12/03 06:29:34;;;;;;;29.93;23.37;;;2.80;99.90;;;;;;5031371;28;20496;-68
2021/12/03 06:32:02;;;;;;;42.50;27.00;;;2.90;99.90;;;;;;5035358;28;20472;-68
2021/12/03 06:34:28;;;;;;;44.77;22.70;;;2.80;99.90;;;;;;5035535;28;20530;-69
2021/12/03 06:36:57;;;;;;;30.97;24.20;;;2.80;99.90;;;;;;5043194;28;20597;-68
2021/12/03 06:39:24;;;;;;;42.43;24.77;;;2.70;99.90;;;;;;5033852;28;20460;-68
2021/12/03 06:41:50;;;;;;;38.87;26.30;;;2.60;99.90;;;;;;5031819;28;20467;-68
2021/12/03 06:44:17;;;;;;;34.70;25.47;;;2.70;99.90;;;;;;5033732;28;20476;-68
2021/12/03 06:46:45;;;;;;;30.23;23.63;;;2.70;99.90;;;;;;5036982;28;21158;-68
2021/12/03 06:49:11;;;;;;;32.33;24.03;;;2.60;99.90;;;;;;5034811;28;20469;-68
2021/12/03 06:51:43;;;;;;;35.40;22.90;;;2.60;99.90;;;;;;5028178;28;20468;-68
2021/12/03 06:54:12;;;;;;;26.13;23.50;;;2.50;99.90;;;;;;5030030;28;20588;-68
2021/12/03 06:56:48;;;;;;;41.77;25.13;;;2.60;99.90;;;;;;5029290;28;20474;-67
2021/12/03 06:59:16;;;;;;;26.20;22.27;;;2.60;99.90;;;;;;5037214;28;20471;-68
2021/12/03 07:01:43;;;;;;;26.10;21.53;;;2.60;99.90;;;;;;5029550;28;21229;-68
2021/12/03 07:04:10;;;;;;;24.43;21.70;;;2.50;99.90;;;;;;5036936;28;20557;-71
2021/12/03 07:06:37;;;;;;;35.17;23.70;;;2.50;99.90;;;;;;5029299;28;20476;-68
2021/12/03 07:09:05;;;;;;;49.20;24.97;;;2.50;99.90;;;;;;5037156;28;20459;-68
2021/12/03 07:11:34;;;;;;;29.00;22.63;;;2.50;99.90;;;;;;5029706;28;20478;-68
2021/12/03 07:14:01;;;;;;;29.03;22.30;;;2.50;99.90;;;;;;5027274;28;20554;-67
2021/12/03 07:16:28;;;;;;;31.80;23.30;;;2.50;99.90;;;;;;5032255;28;20475;-72
2021/12/03 07:18:55;;;;;;;36.27;24.43;;;2.50;99.90;;;;;;5037822;28;20471;-69
2021/12/03 07:21:22;;;;;;;28.73;22.67;;;2.50;99.90;;;;;;5034330;28;20467;-68
2021/12/03 07:23:50;;;;;;;39.10;23.70;;;2.50;99.90;;;;;;5035357;28;20475;-67
2021/12/03 07:26:17;;;;;;;31.97;22.63;;;2.50;99.90;;;;;;5033970;28;20472;-68
2021/12/03 07:28:45;;;;;;;35.63;24.10;;;2.50;99.90;;;;;;5035921;28;20568;-72
2021/12/03 07:31:12;;;;;;;25.70;22.90;;;2.50;99.90;;;;;;5033983;28;20836;-71
2021/12/03 07:33:39;;;;;;;25.90;23.37;;;2.50;99.90;;;;;;5035470;28;20476;-70
2021/12/03 07:36:06;;;;;;;30.07;22.70;;;2.50;99.90;;;;;;5037085;28;20527;-68
2021/12/03 07:38:34;;;;;;;31.00;22.60;;;2.50;99.90;;;;;;5037601;28;20486;-68
2021/12/03 07:41:01;;;;;;;22.60;20.10;;;2.50;99.90;;;;;;5035658;28;20451;-68
2021/12/03 07:43:28;;;;;;;25.27;20.60;;;2.50;99.90;;;;;;5032072;28;20515;-68
2021/12/03 07:45:57;;;;;;;26.97;21.13;;;2.40;99.90;;;;;;5036254;28;20980;-68
2021/12/03 07:48:24;;;;;;;30.70;21.93;;;2.40;99.90;;;;;;5039302;28;20494;-68
2021/12/03 07:50:53;;;;;;;25.83;22.23;;;2.40;99.90;;;;;;5035088;28;20476;-68
2021/12/03 07:53:20;;;;;;;25.60;21.93;;;2.40;99.90;;;;;;5038301;28;20507;-68
2021/12/03 07:55:48;;;;;;;28.03;21.40;;;2.50;99.90;;;;;;5035481;28;20498;-68
2021/12/03 07:58:16;;;;;;;23.90;21.53;;;2.50;99.90;;;;;;5037212;28;20471;-67
2021/12/03 08:00:44;;;;;;;23.27;19.40;;;2.50;99.90;;;;;;5037110;28;20470;-68
2021/12/03 08:03:12;;;;;;;34.93;21.83;;;2.50;99.90;;;;;;5036708;28;20458;-67
2021/12/03 08:05:40;;;;;;;40.67;22.00;;;2.50;99.90;;;;;;5032170;28;20479;-68
2021/12/03 08:08:07;;;;;;;26.90;20.77;;;2.60;99.90;;;;;;5034467;28;20476;-68
2021/12/03 08:10:35;;;;;;;29.47;21.87;;;2.60;99.90;;;;;;5035628;28;20464;-68
2021/12/03 08:13:02;;;;;;;24.63;19.87;;;2.60;99.90;;;;;;5035589;28;20598;-69
2021/12/03 08:15:28;;;;;;;24.00;20.20;;;2.70;99.90;;;;;;5036793;28;20502;-68
2021/12/03 08:17:55;;;;;;;24.43;21.83;;;2.70;99.90;;;;;;5039372;28;20826;-68
2021/12/03 08:20:23;;;;;;;27.20;19.67;;;2.80;99.90;;;;;;5032780;28;20937;-68
2021/12/03 08:22:50;;;;;;;26.40;21.40;;;2.70;99.90;;;;;;5027153;28;20496;-68
2021/12/03 08:25:17;;;;;;;22.80;20.27;;;2.80;99.90;;;;;;5034213;28;20834;-68
2021/12/03 08:27:44;;;;;;;36.53;20.93;;;2.80;99.90;;;;;;5041380;28;20462;-68
2021/12/03 08:30:13;;;;;;;32.13;20.37;;;2.80;99.90;;;;;;5035761;28;20492;-68
2021/12/03 08:32:41;;;;;;;27.97;21.40;;;2.90;99.90;;;;;;5034367;28;20468;-68
2021/12/03 08:35:08;;;;;;;23.50;20.30;;;2.80;99.90;;;;;;5038267;28;20495;-68
2021/12/03 08:37:37;;;;;;;23.00;20.60;;;2.80;99.90;;;;;;5040742;28;20488;-68
2021/12/03 08:40:05;;;;;;;24.40;20.70;;;2.90;99.90;;;;;;5043286;28;20552;-68
2021/12/03 08:42:32;;;;;;;28.80;21.20;;;3.00;99.90;;;;;;5039707;28;20494;-68
2021/12/03 08:44:59;;;;;;;23.80;20.23;;;3.00;99.90;;;;;;5038868;28;20475;-68
2021/12/03 08:47:26;;;;;;;21.37;19.13;;;3.10;99.90;;;;;;5034568;28;20479;-68
2021/12/03 08:49:54;;;;;;;27.37;20.83;;;3.20;99.90;;;;;;5033376;28;20509;-68
2021/12/03 08:52:34;;;;;;;30.40;21.30;;;3.10;99.90;;;;;;5038161;28;20986;-68
2021/12/03 08:55:04;;;;;;;27.20;20.47;;;3.10;99.90;;;;;;5036566;28;20495;-68
2021/12/03 08:57:33;;;;;;;35.37;20.70;;;3.20;99.90;;;;;;5034979;28;20476;-68
2021/12/03 09:00:04;;;;;;;26.40;20.70;;;3.20;99.90;;;;;;5036741;28;20532;-68
2021/12/03 09:02:31;;;;;;;32.90;19.57;;;3.30;99.90;;;;;;5035006;28;20880;-68
2021/12/03 09:04:58;;;;;;;21.13;19.07;;;3.20;99.90;;;;;;5038571;28;20483;-68
2021/12/03 09:07:25;;;;;;;24.73;21.27;;;3.30;99.90;;;;;;5040640;28;20550;-68
2021/12/03 09:09:51;;;;;;;22.60;19.73;;;3.40;99.90;;;;;;5034476;28;20470;-68
2021/12/03 09:12:20;;;;;;;22.60;19.80;;;3.40;99.90;;;;;;5040086;28;20456;-68
2021/12/03 09:14:50;;;;;;;21.13;19.23;;;3.40;99.90;;;;;;5039680;28;20481;-68
2021/12/03 09:20:06;;;;;;;24.93;19.20;;;3.40;99.90;;;;;;5029246;28;20477;-68
2021/12/03 09:22:38;;;;;;;23.57;18.97;;;3.40;99.90;;;;;;5039545;28;20891;-68
2021/12/03 09:25:11;;;;;;;19.00;17.27;;;3.40;99.90;;;;;;5038141;28;20472;-68
2021/12/03 09:27:39;;;;;;;25.10;19.90;;;3.40;99.90;;;;;;5039993;28;20460;-68
2021/12/03 09:30:09;;;;;;;26.20;19.10;;;3.60;99.90;;;;;;5036096;28;20492;-68
2021/12/03 09:32:36;;;;;;;19.53;17.77;;;3.50;99.90;;;;;;5036570;28;20456;-68
2021/12/03 09:35:04;;;;;;;20.80;18.70;;;3.60;99.90;;;;;;5040904;28;20501;-68
2021/12/03 09:37:31;;;;;;;30.87;18.63;;;3.60;99.90;;;;;;5037022;28;20567;-68
2021/12/03 09:40:06;;;;;;;18.83;17.27;;;3.60;99.90;;;;;;5038913;28;20470;-68
2021/12/03 09:42:34;;;;;;;20.00;18.03;;;3.70;99.90;;;;;;5043663;28;20474;-68
2021/12/03 09:45:04;;;;;;;18.87;16.83;;;3.70;99.90;;;;;;5041100;28;20527;-68
2021/12/03 09:47:30;;;;;;;17.57;16.23;;;3.70;99.90;;;;;;5037032;28;20545;-68
2021/12/03 09:49:59;;;;;;;19.53;17.50;;;3.70;99.90;;;;;;5037392;28;20925;-68
2021/12/03 09:52:31;;;;;;;20.40;16.57;;;3.80;99.90;;;;;;5035707;28;21075;-70
2021/12/03 09:55:00;;;;;;;26.60;17.40;;;3.80;99.90;;;;;;5039228;28;20513;-68
2021/12/03 09:57:35;;;;;;;18.90;16.90;;;3.90;99.90;;;;;;5035803;28;20464;-68
2021/12/03 10:00:16;;;;;;;18.70;17.00;;;3.90;99.90;;;;;;5035850;28;20466;-68
2021/12/03 10:03:05;;;;;;;22.03;17.73;;;4.00;99.90;;;;;;5028071;28;20559;-68
2021/12/03 10:14:38;;;;;;;19.33;17.40;;;4.00;99.90;;;;;;5040268;28;20490;-68
2021/12/03 10:20:16;;;;;;;20.27;18.37;;;4.30;99.90;;;;;;4999349;28;20473;-69
2021/12/03 10:28:49;;;;;;;23.07;17.83;;;4.30;99.90;;;;;;4973982;28;20463;-68
2021/12/03 10:34:11;;;;;;;18.80;16.90;;;4.50;99.90;;;;;;5033168;28;21241;-69
2021/12/03 10:39:44;;;;;;;21.40;18.10;;;4.70;99.90;;;;;;5070238;27;20556;-68
2021/12/03 10:42:35;;;;;;;18.87;16.80;;;4.60;99.90;;;;;;5064003;28;20453;-68
2021/12/03 10:45:14;;;;;;;18.10;16.63;;;4.30;99.90;;;;;;5058297;28;20467;-68
2021/12/03 10:50:40;;;;;;;19.57;17.70;;;4.40;99.90;;;;;;5062498;28;20489;-70
2021/12/03 11:07:35;;;;;;;18.30;16.67;;;4.90;99.90;;;;;;5068452;28;20473;-69
2021/12/03 11:41:58;;;;;;;18.73;17.33;;;5.30;99.90;;;;;;5027464;28;20615;-68
2021/12/03 14:09:28;;;;;;;18.73;17.10;;;5.90;99.90;;;;;;5019953;28;20635;-69
2021/12/03 14:42:54;;;;;;;18.53;16.80;;;5.20;99.90;;;;;;4993304;28;20885;-70
2021/12/03 14:54:12;;;;;;;18.03;17.03;;;5.20;99.90;;;;;;4992089;28;20484;-68
2021/12/03 14:56:39;;;;;;;17.27;16.17;;;5.20;99.90;;;;;;5020763;28;20476;-70
2021/12/03 14:59:12;;;;;;;17.73;16.40;;;5.10;99.90;;;;;;5010855;28;20827;-72
2021/12/03 15:01:49;;;;;;;17.63;16.53;;;5.00;99.90;;;;;;5017322;28;20473;-69
2021/12/03 15:07:15;;;;;;;16.70;15.70;;;5.10;99.90;;;;;;4993442;28;20489;-72
2021/12/03 15:09:43;;;;;;;17.90;16.50;;;5.10;99.90;;;;;;5016108;28;21124;-70
2021/12/03 15:26:05;;;;;;;16.87;15.83;;;4.90;99.90;;;;;;4991936;28;20501;-68
2021/12/03 15:34:17;;;;;;;16.50;15.50;;;4.90;99.90;;;;;;5013417;28;20606;-69
2021/12/03 15:37:00;;;;;;;19.20;17.20;;;4.80;99.90;;;;;;5018547;28;20477;-67
2021/12/03 15:39:46;;;;;;;16.73;15.70;;;4.80;99.90;;;;;;5017883;28;20527;-70
2021/12/03 16:04:13;;;;;;;17.00;16.00;;;4.90;99.90;;;;;;5017975;28;20468;-69
2021/12/03 16:06:49;;;;;;;17.13;15.87;;;4.90;99.90;;;;;;5019127;28;20495;-68
2021/12/03 16:09:29;;;;;;;16.87;15.77;;;4.90;99.90;;;;;;5010213;28;20552;-73
2021/12/03 16:11:59;;;;;;;16.60;15.57;;;4.90;99.90;;;;;;5014192;28;20538;-69
2021/12/03 16:14:43;;;;;;;16.57;15.67;;;5.00;99.90;;;;;;5012000;28;20474;-72
2021/12/03 16:20:09;;;;;;;15.63;14.67;;;5.00;99.90;;;;;;5010641;28;20476;-72
2021/12/03 16:25:34;;;;;;;15.93;14.93;;;4.90;99.90;;;;;;4987485;28;20467;-72
2021/12/03 16:44:57;;;;;;;15.50;14.60;;;5.10;99.90;;;;;;5018571;28;20510;-71
2021/12/03 16:47:37;;;;;;;15.80;14.90;;;5.10;99.90;;;;;;5016422;28;20502;-68
2021/12/03 16:52:51;;;;;;;16.13;15.13;;;5.00;99.90;;;;;;4996032;28;20460;-68
2021/12/03 16:55:19;;;;;;;15.47;14.50;;;5.00;99.90;;;;;;5011054;28;20724;-71
2021/12/03 16:57:49;;;;;;;16.70;15.27;;;5.00;99.90;;;;;;5010758;28;21062;-70
2021/12/03 17:00:21;;;;;;;15.87;14.87;;;5.00;99.90;;;;;;5017295;28;20479;-68
2021/12/03 17:02:53;;;;;;;16.03;14.50;;;5.10;99.90;;;;;;5018710;28;20790;-70
2021/12/03 17:05:34;;;;;;;16.10;15.00;;;5.10;99.90;;;;;;5016127;28;20729;-71
2021/12/03 17:11:28;;;;;;;14.90;14.10;;;5.10;99.90;;;;;;5014840;28;20903;-70
2021/12/03 17:14:08;;;;;;;15.37;14.57;;;5.10;99.90;;;;;;5011575;28;21070;-68
2021/12/03 17:30:47;;;;;;;16.33;15.23;;;5.10;99.90;;;;;;5023432;28;20626;-68
2021/12/03 17:44:37;;;;;;;15.60;14.80;;;5.10;99.90;;;;;;5020874;28;20460;-67
2021/12/03 17:49:53;;;;;;;17.33;16.30;;;4.90;99.90;;;;;;5020629;28;20468;-71
2021/12/03 17:57:55;;;;;;;18.40;17.30;;;4.70;99.90;;;;;;5017099;28;20975;-70
2021/12/03 18:00:31;;;;;;;19.63;18.47;;;4.70;99.90;;;;;;5015497;28;20465;-70
2021/12/03 18:03:05;;;;;;;20.67;19.10;;;4.60;99.90;;;;;;5014698;28;20616;-71
2021/12/03 18:05:50;;;;;;;21.53;19.97;;;4.50;99.90;;;;;;5019781;28;20553;-72
2021/12/03 18:08:21;;;;;;;21.13;19.67;;;4.50;99.90;;;;;;5023230;28;21002;-70
2021/12/03 18:11:14;;;;;;;19.10;17.90;;;4.50;99.90;;;;;;5020756;28;20847;-70
2021/12/03 18:14:07;;;;;;;19.80;18.50;;;4.60;99.90;;;;;;5018944;28;20473;-68
2021/12/03 18:17:11;;;;;;;18.30;17.30;;;4.60;99.90;;;;;;5015733;28;20557;-71
2021/12/03 18:44:38;;;;;;;19.03;17.93;;;4.80;99.90;;;;;;5019409;28;20485;-69
2021/12/03 18:47:41;;;;;;;18.13;17.13;;;4.80;99.90;;;;;;5020401;28;20540;-69
2021/12/03 18:50:46;;;;;;;18.00;17.00;;;4.80;99.90;;;;;;5022751;28;20461;-67
2021/12/03 18:56:00;;;;;;;18.33;17.03;;;4.90;99.90;;;;;;5019895;28;20456;-72
2021/12/03 18:58:30;;;;;;;18.03;17.00;;;4.90;99.90;;;;;;5015789;28;20548;-71
2021/12/03 19:00:58;;;;;;;17.83;16.63;;;5.00;99.90;;;;;;5019978;28;20609;-69
2021/12/03 19:03:31;;;;;;;16.20;15.40;;;5.00;99.90;;;;;;5019814;28;20466;-70
2021/12/03 19:06:10;;;;;;;16.00;15.00;;;5.00;99.90;;;;;;5015065;28;20546;-69
2021/12/03 19:08:44;;;;;;;15.67;14.87;;;5.10;99.90;;;;;;5021354;28;20504;-70
2021/12/03 19:11:16;;;;;;;16.30;15.30;;;5.00;99.90;;;;;;5020956;28;20496;-73
2021/12/03 19:13:44;;;;;;;15.37;14.50;;;5.10;99.90;;;;;;5016222;28;20994;-73
2021/12/03 19:16:14;;;;;;;15.23;14.53;;;5.00;99.90;;;;;;5018614;28;20556;-69
2021/12/03 19:18:44;;;;;;;15.43;14.63;;;5.10;99.90;;;;;;5013281;28;20462;-71
2021/12/03 19:21:18;;;;;;;15.00;14.30;;;5.10;99.90;;;;;;5020998;28;20746;-71